createdAt,value
2023-08-12T00:00:13.115Z,13.25
2023-08-12T00:02:45.570Z,8.68
2023-08-12T00:05:13.491Z,8.95
2023-08-12T00:07:42.473Z,10.00
2023-08-12T00:10:11.847Z,9.73
2023-08-12T00:12:39.557Z,13.27
2023-08-12T00:15:09.052Z,8.55
2023-08-12T00:17:38.611Z,11.55
2023-08-12T00:20:07.731Z,9.25
2023-08-12T00:22:34.926Z,6.65
2023-08-12T00:25:02.412Z,8.25
2023-08-12T00:27:29.571Z,7.40
2023-08-12T00:29:56.497Z,9.98
2023-08-12T00:32:23.656Z,12.88
2023-08-12T00:34:51.027Z,17.50
2023-08-12T00:37:18.307Z,16.52
2023-08-12T00:39:46.051Z,12.07
2023-08-12T00:42:13.164Z,13.57
2023-08-12T00:44:40.226Z,11.80
2023-08-12T00:47:07.907Z,14.88
2023-08-12T00:49:35.102Z,14.40
2023-08-12T00:52:02.358Z,13.85
2023-08-12T00:54:29.367Z,18.13
2023-08-12T00:56:56.443Z,15.77
2023-08-12T00:59:24.240Z,16.00
2023-08-12T01:01:51.381Z,20.48
2023-08-12T01:04:18.502Z,20.50
2023-08-12T01:06:46.463Z,22.67
2023-08-12T01:09:13.651Z,16.42
2023-08-12T01:11:46.930Z,18.45
2023-08-12T01:14:29.810Z,16.48
2023-08-12T01:17:01.253Z,13.55
2023-08-12T01:19:37.091Z,16.30
2023-08-12T01:22:05.410Z,13.27
2023-08-12T01:24:37.338Z,11.50
2023-08-12T01:27:05.744Z,12.90
2023-08-12T01:29:34.282Z,15.77
2023-08-12T01:32:12.576Z,11.48
2023-08-12T01:34:57.423Z,19.13
2023-08-12T01:37:30.307Z,13.38
2023-08-12T01:39:58.026Z,15.93
2023-08-12T01:42:25.598Z,16.02
2023-08-12T01:44:54.628Z,12.40
2023-08-12T01:47:21.530Z,16.30
2023-08-12T01:49:48.514Z,14.05
2023-08-12T01:52:15.432Z,14.43
2023-08-12T01:54:42.487Z,14.60
2023-08-12T01:57:10.486Z,13.95
2023-08-12T01:59:39.327Z,16.42
2023-08-12T02:02:06.404Z,17.65
2023-08-12T02:04:35.352Z,15.73
2023-08-12T02:07:02.191Z,16.92
2023-08-12T02:09:29.118Z,17.23
2023-08-12T02:11:56.059Z,21.02
2023-08-12T02:14:23.070Z,16.05
2023-08-12T02:16:50.093Z,17.70
2023-08-12T02:19:17.151Z,19.70
2023-08-12T02:21:44.286Z,22.95
2023-08-12T02:24:11.318Z,19.42
2023-08-12T02:26:39.323Z,25.42
2023-08-12T02:29:06.293Z,20.83
2023-08-12T02:31:33.941Z,19.70
2023-08-12T02:34:00.884Z,19.90
2023-08-12T02:36:28.060Z,18.40
2023-08-12T02:38:56.245Z,17.80
2023-08-12T02:41:23.229Z,18.48
2023-08-12T02:43:50.065Z,24.23
2023-08-12T02:46:17.324Z,19.58
2023-08-12T02:48:44.468Z,21.58
2023-08-12T02:51:11.438Z,27.63
2023-08-12T02:53:38.403Z,24.10
2023-08-12T02:56:05.417Z,14.10
2023-08-12T02:58:32.632Z,14.25
2023-08-12T03:00:59.698Z,13.35
2023-08-12T03:03:26.887Z,17.38
2023-08-12T03:05:53.862Z,14.85
2023-08-12T03:08:20.947Z,15.52
2023-08-12T03:10:49.213Z,13.10
2023-08-12T03:13:17.510Z,16.58
2023-08-12T03:15:44.563Z,17.48
2023-08-12T03:18:11.935Z,22.77
2023-08-12T03:20:40.298Z,15.65
2023-08-12T03:23:07.304Z,15.18
2023-08-12T03:25:34.149Z,14.52
2023-08-12T03:28:01.294Z,13.88
2023-08-12T03:30:28.601Z,14.82
2023-08-12T03:32:57.184Z,13.25
2023-08-12T03:35:27.061Z,12.48
2023-08-12T03:37:54.623Z,10.43
2023-08-12T03:40:22.522Z,12.88
2023-08-12T03:42:50.031Z,11.10
2023-08-12T03:45:20.024Z,14.35
2023-08-12T03:47:47.735Z,10.57
2023-08-12T03:50:14.766Z,15.00
2023-08-12T03:52:41.939Z,9.30
2023-08-12T03:55:09.293Z,8.18
2023-08-12T03:57:36.338Z,12.02
2023-08-12T04:00:04.251Z,14.88
2023-08-12T04:02:41.722Z,12.02
2023-08-12T04:05:08.962Z,11.98
2023-08-12T04:07:37.703Z,11.32
2023-08-12T04:10:05.114Z,10.27
2023-08-12T04:12:32.384Z,7.15
2023-08-12T04:14:59.424Z,7.82
2023-08-12T04:17:26.392Z,9.13
2023-08-12T04:19:53.969Z,10.32
2023-08-12T04:22:20.890Z,9.18
2023-08-12T04:24:47.930Z,7.60
2023-08-12T04:27:15.246Z,10.88
2023-08-12T04:29:42.416Z,10.35
2023-08-12T04:32:09.809Z,8.88
2023-08-12T04:34:37.055Z,7.43
2023-08-12T04:37:04.547Z,10.85
2023-08-12T04:39:33.598Z,9.63
2023-08-12T04:42:01.168Z,9.00
2023-08-12T04:44:28.198Z,7.65
2023-08-12T04:46:56.161Z,11.65
2023-08-12T04:49:24.744Z,8.52
2023-08-12T04:51:53.896Z,9.90
2023-08-12T04:54:21.532Z,11.27
2023-08-12T04:56:50.021Z,8.30
2023-08-12T04:59:17.096Z,7.45
2023-08-12T05:01:58.514Z,4.97
2023-08-12T05:04:31.916Z,5.93
2023-08-12T05:06:59.012Z,9.48
2023-08-12T05:09:26.332Z,7.15
2023-08-12T05:11:53.431Z,5.72
2023-08-12T05:14:20.480Z,6.30
2023-08-12T05:16:47.641Z,8.48
2023-08-12T05:19:14.683Z,9.57
2023-08-12T05:21:41.958Z,12.48
2023-08-12T05:24:09.358Z,7.68
2023-08-12T05:26:36.221Z,6.18
2023-08-12T05:29:03.389Z,6.47
2023-08-12T05:31:30.935Z,5.15
2023-08-12T05:33:58.127Z,6.32
2023-08-12T05:36:25.023Z,6.40
2023-08-12T05:38:51.968Z,3.83
2023-08-12T05:41:18.975Z,5.88
2023-08-12T05:43:45.996Z,5.30
2023-08-12T05:46:13.189Z,4.00
2023-08-12T05:48:40.235Z,7.47
2023-08-12T05:51:07.370Z,8.60
2023-08-12T05:53:34.652Z,4.20
2023-08-12T05:56:01.909Z,6.32
2023-08-12T05:58:28.799Z,10.55
2023-08-12T06:00:55.924Z,5.68
2023-08-12T06:03:22.922Z,7.32
2023-08-12T06:05:50.370Z,5.35
2023-08-12T06:08:17.373Z,5.55
2023-08-12T06:10:44.481Z,10.23
2023-08-12T06:13:11.486Z,2.92
2023-08-12T06:15:38.523Z,7.38
2023-08-12T06:18:06.053Z,3.47
2023-08-12T06:20:33.089Z,3.47
2023-08-12T06:23:00.177Z,3.83
2023-08-12T06:25:27.061Z,3.22
2023-08-12T06:27:54.205Z,3.80
2023-08-12T06:30:21.220Z,3.65
2023-08-12T06:32:48.202Z,4.65
2023-08-12T06:35:15.206Z,4.72
2023-08-12T06:37:42.925Z,4.55
2023-08-12T06:40:10.068Z,2.22
2023-08-12T06:42:37.176Z,5.43
2023-08-12T06:45:05.634Z,5.38
2023-08-12T06:47:32.790Z,2.83
2023-08-12T06:49:59.911Z,3.65
2023-08-12T06:52:26.815Z,2.30
2023-08-12T06:54:53.953Z,4.03
2023-08-12T06:57:20.856Z,5.53
2023-08-12T06:59:47.933Z,3.72
2023-08-12T07:02:15.088Z,7.40
2023-08-12T07:04:42.633Z,4.47
2023-08-12T07:07:09.480Z,3.72
2023-08-12T07:09:36.566Z,5.05
2023-08-12T07:12:04.114Z,3.22
2023-08-12T07:14:31.312Z,6.85
2023-08-12T07:16:58.268Z,1.92
2023-08-12T07:19:25.201Z,5.50
2023-08-12T07:21:52.355Z,8.20
2023-08-12T07:24:19.354Z,4.25
2023-08-12T07:26:46.398Z,7.47
2023-08-12T07:29:13.235Z,1.92
2023-08-12T07:31:40.265Z,2.47
2023-08-12T07:34:07.235Z,5.65
2023-08-12T07:36:34.554Z,6.88
2023-08-12T07:39:01.380Z,3.58
2023-08-12T07:41:29.403Z,2.60
2023-08-12T07:43:56.371Z,1.58
2023-08-12T07:46:23.579Z,3.63
2023-08-12T07:48:50.844Z,1.83
2023-08-12T07:51:17.822Z,2.45
2023-08-12T07:53:44.836Z,6.38
2023-08-12T07:56:11.838Z,3.63
2023-08-12T07:58:38.785Z,4.63
2023-08-12T08:01:06.300Z,3.58
2023-08-12T08:03:33.236Z,1.75
2023-08-12T08:06:00.253Z,2.65
2023-08-12T08:08:27.175Z,3.63
2023-08-12T08:10:54.131Z,2.08
2023-08-12T08:13:21.260Z,2.00
2023-08-12T08:15:48.216Z,6.82
2023-08-12T08:18:15.341Z,2.88
2023-08-12T08:20:46.269Z,2.45
2023-08-12T08:23:13.502Z,6.28
2023-08-12T08:25:40.799Z,3.13
2023-08-12T08:28:07.767Z,8.40
2023-08-12T08:30:34.655Z,3.28
2023-08-12T08:33:01.784Z,3.15
2023-08-12T08:35:28.920Z,4.57
2023-08-12T08:37:56.103Z,5.50
2023-08-12T08:40:23.046Z,6.75
2023-08-12T08:42:54.506Z,11.75
2023-08-12T08:45:26.703Z,2.67
2023-08-12T08:47:54.219Z,5.63
2023-08-12T08:50:21.992Z,3.22
2023-08-12T08:52:49.165Z,3.08
2023-08-12T08:55:16.437Z,4.00
2023-08-12T08:57:47.438Z,5.78
2023-08-12T09:02:54.370Z,4.40
2023-08-12T09:05:22.044Z,3.85
2023-08-12T09:07:50.485Z,3.80
2023-08-12T09:10:18.812Z,3.28
2023-08-12T09:12:47.939Z,6.35
2023-08-12T09:15:17.553Z,3.55
2023-08-12T09:17:44.718Z,2.15
2023-08-12T09:20:15.480Z,2.25
2023-08-12T09:22:42.710Z,2.72
2023-08-12T09:25:10.541Z,4.75
2023-08-12T09:27:41.414Z,2.65
2023-08-12T09:30:09.790Z,3.00
2023-08-12T09:32:37.164Z,2.28
2023-08-12T09:35:06.686Z,7.57
2023-08-12T09:37:33.637Z,6.80
2023-08-12T09:40:00.640Z,3.92
2023-08-12T09:42:29.364Z,26.60
2023-08-12T09:44:57.870Z,2.13
2023-08-12T09:47:28.302Z,2.30
2023-08-12T09:49:56.287Z,8.07
2023-08-12T09:52:23.343Z,2.95
2023-08-12T09:54:51.474Z,11.20
2023-08-12T09:57:19.443Z,4.80
2023-08-12T09:59:47.727Z,6.47
2023-08-12T10:02:19.881Z,3.05
2023-08-12T10:04:47.598Z,2.67
2023-08-12T10:07:15.354Z,8.02
2023-08-12T10:09:43.039Z,3.35
2023-08-12T10:12:10.798Z,3.70
2023-08-12T10:14:38.771Z,4.30
2023-08-12T10:17:06.841Z,3.88
2023-08-12T10:19:35.200Z,2.72
2023-08-12T10:22:04.914Z,8.88
2023-08-12T10:24:32.797Z,2.95
2023-08-12T10:26:59.713Z,3.88
2023-08-12T10:29:26.714Z,4.05
2023-08-12T10:31:54.770Z,6.60
2023-08-12T10:34:26.207Z,3.75
2023-08-12T10:39:30.045Z,4.15
2023-08-12T10:41:57.465Z,1.83
2023-08-12T10:44:29.903Z,5.85
2023-08-12T10:46:59.576Z,4.57
2023-08-12T10:49:26.606Z,9.70
2023-08-12T10:51:55.128Z,5.93
2023-08-12T10:54:33.171Z,2.53
2023-08-12T10:57:09.382Z,3.83
2023-08-12T10:59:58.331Z,3.22
2023-08-12T11:02:34.207Z,2.15
2023-08-12T11:05:08.285Z,3.78
2023-08-12T11:07:43.341Z,2.58
2023-08-12T11:10:23.488Z,3.20
2023-08-12T11:12:58.227Z,6.78
2023-08-12T11:15:38.187Z,6.97
2023-08-12T11:18:07.717Z,8.23
2023-08-12T11:20:35.423Z,3.45
2023-08-12T11:23:03.681Z,3.28
2023-08-12T11:25:31.484Z,3.95
2023-08-12T11:27:59.018Z,5.18
2023-08-12T11:30:26.188Z,4.10
2023-08-12T11:32:54.998Z,3.70
2023-08-12T11:35:23.810Z,7.25
2023-08-12T11:37:54.318Z,4.10
2023-08-12T11:40:21.465Z,3.03
2023-08-12T11:42:50.017Z,3.08
2023-08-12T11:45:19.641Z,3.88
2023-08-12T11:47:48.537Z,6.63
2023-08-12T11:50:15.586Z,3.88
2023-08-12T11:52:42.625Z,3.40
2023-08-12T11:55:10.582Z,4.50
2023-08-12T11:57:38.232Z,2.15
2023-08-12T12:00:16.798Z,3.70
2023-08-12T12:02:51.351Z,3.60
2023-08-12T12:05:24.285Z,5.18
2023-08-12T12:07:53.097Z,10.07
2023-08-12T12:10:34.534Z,6.05
2023-08-12T12:13:03.703Z,3.35
2023-08-12T12:15:32.226Z,8.18
2023-08-12T12:17:59.906Z,11.32
2023-08-12T12:20:28.490Z,5.40
2023-08-12T12:22:56.388Z,11.35
2023-08-12T12:25:24.333Z,6.20
2023-08-12T12:27:51.234Z,4.47
2023-08-12T12:30:18.571Z,4.20
2023-08-12T12:32:46.509Z,2.45
2023-08-12T12:35:13.943Z,4.55
2023-08-12T12:37:41.171Z,3.30
2023-08-12T12:40:08.747Z,9.30
2023-08-12T12:42:35.788Z,5.60
2023-08-12T12:45:03.485Z,2.95
2023-08-12T12:47:30.431Z,25.23
2023-08-12T12:49:57.543Z,5.95
2023-08-12T12:52:24.577Z,6.65
2023-08-12T12:54:51.526Z,2.80
2023-08-12T12:57:18.546Z,8.77
2023-08-12T12:59:45.490Z,1.95
2023-08-12T13:02:12.898Z,2.70
2023-08-12T13:04:39.974Z,3.28
2023-08-12T13:07:06.945Z,5.53
2023-08-12T13:09:33.830Z,3.55
2023-08-12T13:12:00.943Z,4.03
2023-08-12T13:14:30.080Z,3.58
2023-08-12T13:16:57.234Z,5.90
2023-08-12T13:19:24.234Z,2.20
2023-08-12T13:21:51.283Z,2.10
2023-08-12T13:24:18.175Z,4.07
2023-08-12T13:26:45.112Z,2.45
2023-08-12T13:29:12.164Z,4.97
2023-08-12T13:31:40.370Z,5.30
2023-08-12T13:34:07.439Z,8.25
2023-08-12T13:36:34.352Z,8.00
2023-08-12T13:39:01.603Z,4.18
2023-08-12T13:41:28.629Z,2.42
2023-08-12T13:43:55.661Z,2.10
2023-08-12T13:46:22.528Z,2.67
2023-08-12T13:48:49.596Z,5.75
2023-08-12T13:51:16.525Z,4.93
2023-08-12T13:53:43.577Z,2.55
2023-08-12T13:56:10.661Z,2.80
2023-08-12T13:58:37.623Z,2.55
2023-08-12T14:01:04.674Z,3.58
2023-08-12T14:03:31.929Z,5.25
2023-08-12T14:05:59.274Z,7.93
2023-08-12T14:08:26.424Z,3.22
2023-08-12T14:10:53.469Z,5.97
2023-08-12T14:13:20.377Z,3.75
2023-08-12T14:15:47.366Z,3.63
2023-08-12T14:18:14.358Z,4.05
2023-08-12T14:20:41.460Z,4.90
2023-08-12T14:23:09.874Z,1.70
2023-08-12T14:25:37.013Z,4.68
2023-08-12T14:28:04.364Z,2.05
2023-08-12T14:30:31.437Z,3.35
2023-08-12T14:32:58.696Z,6.07
2023-08-12T14:35:26.310Z,5.38
2023-08-12T14:37:53.265Z,6.28
2023-08-12T14:40:20.234Z,3.75
2023-08-12T14:42:47.698Z,4.90
2023-08-12T14:45:14.751Z,2.67
2023-08-12T14:47:41.816Z,18.83
2023-08-12T14:50:09.882Z,4.22
2023-08-12T14:52:36.984Z,3.30
2023-08-12T14:55:04.107Z,6.40
2023-08-12T14:57:31.265Z,2.47
2023-08-12T14:59:58.151Z,3.95
2023-08-12T15:02:25.284Z,4.50
2023-08-12T15:04:52.772Z,3.35
2023-08-12T15:07:20.132Z,4.32
2023-08-12T15:09:47.525Z,4.40
2023-08-12T15:12:14.388Z,6.90
2023-08-12T15:14:41.597Z,4.85
2023-08-12T15:17:08.620Z,5.60
2023-08-12T15:19:35.817Z,4.68
2023-08-12T15:22:02.726Z,6.82
2023-08-12T15:24:29.736Z,8.05
2023-08-12T15:26:56.676Z,4.85
2023-08-12T15:29:23.647Z,5.50
2023-08-12T15:31:51.282Z,3.40
2023-08-12T15:34:18.577Z,5.30
2023-08-12T15:36:45.744Z,6.32
2023-08-12T15:39:12.980Z,5.30
2023-08-12T15:41:43.268Z,4.20
2023-08-12T15:44:13.564Z,3.25
2023-08-12T15:46:41.171Z,3.22
2023-08-12T15:49:12.082Z,5.30
2023-08-12T15:51:40.419Z,4.40
2023-08-12T15:54:08.518Z,5.47
2023-08-12T15:56:38.165Z,7.30
2023-08-12T15:59:07.024Z,6.82
2023-08-12T16:01:34.882Z,3.97
2023-08-12T16:04:02.072Z,6.65
2023-08-12T16:06:29.716Z,5.20
2023-08-12T16:09:15.722Z,3.38
2023-08-12T16:11:43.850Z,4.68
2023-08-12T16:14:10.837Z,5.20
2023-08-12T16:16:37.772Z,3.85
2023-08-12T16:19:05.004Z,5.57
2023-08-12T16:21:32.727Z,6.20
2023-08-12T16:23:59.864Z,3.92
2023-08-12T16:26:26.891Z,3.80
2023-08-12T16:28:53.752Z,3.35
2023-08-12T16:31:21.024Z,7.80
2023-08-12T16:33:47.936Z,3.95
2023-08-12T16:36:15.000Z,3.88
2023-08-12T16:38:41.900Z,5.03
2023-08-12T16:41:08.913Z,5.72
2023-08-12T16:43:35.763Z,11.77
2023-08-12T16:46:02.914Z,6.43
2023-08-12T16:48:29.910Z,11.77
2023-08-12T16:50:56.980Z,8.23
2023-08-12T16:53:24.044Z,44.08
2023-08-12T16:55:50.946Z,4.57
2023-08-12T16:58:18.391Z,5.85
2023-08-12T17:00:46.740Z,5.38
2023-08-12T17:03:14.087Z,8.60
2023-08-12T17:05:41.030Z,6.80
2023-08-12T17:08:09.341Z,4.70
2023-08-12T17:10:40.254Z,7.88
2023-08-12T17:13:07.276Z,6.45
2023-08-12T17:15:34.448Z,7.10
2023-08-12T17:18:01.454Z,4.30
2023-08-12T17:20:28.689Z,7.32
2023-08-12T17:22:55.659Z,10.48
2023-08-12T17:25:22.670Z,12.40
2023-08-12T17:27:51.736Z,13.40
2023-08-12T17:30:22.173Z,10.32
2023-08-12T17:32:49.450Z,7.88
2023-08-12T17:35:16.573Z,7.75
2023-08-12T17:37:44.231Z,3.08
2023-08-12T17:40:12.302Z,6.53
2023-08-12T17:42:39.286Z,7.72
2023-08-12T17:45:07.329Z,4.03
2023-08-12T17:47:34.488Z,3.78
2023-08-12T17:50:01.425Z,5.85
2023-08-12T17:52:28.495Z,5.10
2023-08-12T17:54:55.446Z,7.03
2023-08-12T17:57:22.447Z,4.38
2023-08-12T17:59:49.421Z,6.78
2023-08-12T18:02:16.646Z,7.82
2023-08-12T18:04:43.788Z,7.68
2023-08-12T18:07:10.850Z,11.68
2023-08-12T18:09:37.811Z,3.92
2023-08-12T18:12:04.904Z,4.15
2023-08-12T18:14:31.898Z,7.18
2023-08-12T18:16:59.112Z,6.13
2023-08-12T18:19:26.106Z,8.05
2023-08-12T18:21:53.047Z,6.78
2023-08-12T18:24:20.166Z,8.68
2023-08-12T18:26:47.028Z,4.38
2023-08-12T18:29:14.142Z,8.57
2023-08-12T18:31:41.066Z,6.78
2023-08-12T18:34:08.048Z,7.32
2023-08-12T18:36:35.142Z,5.70
2023-08-12T18:39:02.171Z,11.02
2023-08-12T18:41:29.079Z,11.93
2023-08-12T18:43:56.187Z,15.98
2023-08-12T18:46:23.325Z,9.63
2023-08-12T18:48:50.441Z,8.73
2023-08-12T18:51:17.747Z,12.13
2023-08-12T18:53:44.710Z,6.25
2023-08-12T18:56:11.657Z,6.57
2023-08-12T18:58:38.607Z,8.93
2023-08-12T19:01:05.685Z,10.43
2023-08-12T19:03:32.733Z,12.73
2023-08-12T19:06:01.157Z,11.25
2023-08-12T19:08:28.187Z,18.20
2023-08-12T19:10:59.052Z,14.80
2023-08-12T19:13:26.701Z,9.37
2023-08-12T19:15:55.678Z,13.95
2023-08-12T19:18:26.996Z,14.23
2023-08-12T19:20:54.095Z,15.35
2023-08-12T19:23:21.607Z,19.17
2023-08-12T19:25:49.491Z,12.00
2023-08-12T19:28:16.831Z,8.52
2023-08-12T19:30:49.813Z,7.82
2023-08-12T19:33:18.862Z,8.07
2023-08-12T19:35:46.371Z,10.98
2023-08-12T19:38:14.361Z,12.25
2023-08-12T19:40:41.426Z,7.13
2023-08-12T19:43:08.646Z,11.90
2023-08-12T19:45:35.753Z,13.65
2023-08-12T19:48:02.932Z,7.68
2023-08-12T19:50:31.309Z,10.00
2023-08-12T19:52:58.420Z,12.90
2023-08-12T19:55:25.964Z,6.50
2023-08-12T19:57:52.802Z,15.52
2023-08-12T20:00:19.838Z,8.95
2023-08-12T20:02:47.440Z,15.65
2023-08-12T20:05:19.221Z,8.82
2023-08-12T20:07:48.286Z,9.68
2023-08-12T20:10:17.249Z,10.85
2023-08-12T20:12:45.311Z,14.65
2023-08-12T20:15:12.627Z,12.35
2023-08-12T20:17:40.974Z,15.10
2023-08-12T20:20:13.463Z,10.18
2023-08-12T20:23:04.509Z,10.07
2023-08-12T20:25:37.986Z,17.42
2023-08-12T20:28:07.065Z,12.75
2023-08-12T20:30:34.978Z,18.63
2023-08-12T20:33:05.080Z,11.90
2023-08-12T20:35:34.955Z,11.55
2023-08-12T20:38:04.191Z,18.23
2023-08-12T20:40:33.010Z,10.05
2023-08-12T20:43:02.014Z,12.25
2023-08-12T20:45:29.249Z,9.80
2023-08-12T20:47:56.317Z,10.48
2023-08-12T20:50:23.254Z,13.05
2023-08-12T20:52:50.383Z,14.77
2023-08-12T20:55:17.323Z,16.52
2023-08-12T20:57:44.413Z,12.68
2023-08-12T21:00:17.378Z,12.68
2023-08-12T21:02:46.510Z,15.40
2023-08-12T21:05:14.739Z,8.00
2023-08-12T21:07:42.282Z,8.90
2023-08-12T21:10:10.775Z,9.05
2023-08-12T21:12:38.384Z,19.45
2023-08-12T21:15:06.049Z,13.88
2023-08-12T21:17:33.293Z,16.63
2023-08-12T21:20:00.297Z,15.88
2023-08-12T21:22:27.411Z,14.13
2023-08-12T21:24:54.500Z,17.95
2023-08-12T21:27:22.329Z,22.48
2023-08-12T21:29:49.197Z,15.75
2023-08-12T21:32:16.957Z,19.65
2023-08-12T21:34:44.026Z,10.38
2023-08-12T21:37:12.134Z,8.77
2023-08-12T21:39:39.085Z,12.23
2023-08-12T21:42:06.409Z,8.70
2023-08-12T21:44:33.364Z,13.60
2023-08-12T21:47:00.809Z,18.92
2023-08-12T21:49:27.948Z,9.48
2023-08-12T21:51:55.676Z,12.23
2023-08-12T21:54:22.715Z,9.32
2023-08-12T21:56:49.855Z,13.43
2023-08-12T21:59:16.955Z,9.18
2023-08-12T22:01:45.010Z,12.35
2023-08-12T22:04:12.163Z,19.65
2023-08-12T22:06:39.122Z,14.27
2023-08-12T22:09:06.117Z,15.32
2023-08-12T22:11:33.010Z,14.02
2023-08-12T22:14:00.083Z,15.95
2023-08-12T22:16:27.033Z,21.02
2023-08-12T22:18:54.038Z,16.00
2023-08-12T22:21:21.901Z,14.82
2023-08-12T22:23:48.780Z,7.57
2023-08-12T22:26:15.760Z,15.70
2023-08-12T22:28:42.614Z,15.02
2023-08-12T22:31:09.745Z,17.83
2023-08-12T22:33:36.757Z,11.15
2023-08-12T22:36:04.532Z,14.20
2023-08-12T22:38:31.446Z,15.85
2023-08-12T22:40:58.539Z,14.13
2023-08-12T22:43:25.599Z,11.38
2023-08-12T22:45:52.611Z,15.95
2023-08-12T22:48:20.342Z,25.17
2023-08-12T22:50:47.501Z,13.00
2023-08-12T22:53:14.742Z,8.85
2023-08-12T22:55:41.860Z,12.13
2023-08-12T22:58:08.937Z,11.18
2023-08-12T23:00:36.282Z,18.95
2023-08-12T23:03:04.209Z,17.38
2023-08-12T23:05:31.401Z,19.08
2023-08-12T23:07:58.298Z,9.88
2023-08-12T23:10:25.103Z,13.18
2023-08-12T23:12:52.274Z,13.77
2023-08-12T23:15:19.238Z,9.05
2023-08-12T23:17:46.332Z,12.55
2023-08-12T23:20:13.224Z,14.73
2023-08-12T23:22:40.205Z,17.60
2023-08-12T23:25:08.604Z,12.50
2023-08-12T23:27:36.850Z,9.00
2023-08-12T23:30:04.322Z,8.82
2023-08-12T23:32:31.597Z,12.50
2023-08-12T23:34:58.648Z,9.15
2023-08-12T23:37:25.519Z,8.63
2023-08-12T23:39:52.658Z,10.27
2023-08-12T23:42:19.495Z,9.80
2023-08-12T23:44:46.620Z,12.25
2023-08-12T23:47:13.477Z,10.40
2023-08-12T23:49:40.408Z,7.32
2023-08-12T23:52:08.170Z,7.78
2023-08-12T23:54:35.201Z,6.32
2023-08-12T23:57:04.208Z,5.25
2023-08-12T23:59:31.039Z,6.70
